createdAt,value
2019-04-04T00:04:01.302Z,2.5
2019-04-04T00:14:01.434Z,2.4
2019-04-04T00:24:01.446Z,2.4
2019-04-04T00:34:01.456Z,2.3
2019-04-04T00:49:05.420Z,2.3
2019-04-04T00:59:01.455Z,2.3
2019-04-04T01:04:01.451Z,2.3
2019-04-04T01:19:01.364Z,2.3
2019-04-04T01:29:01.314Z,2.4
2019-04-04T01:34:01.561Z,2.5
2019-04-04T01:39:01.311Z,2.5
2019-04-04T01:54:01.891Z,2.5
2019-04-04T02:09:03.579Z,2.5
2019-04-04T02:19:01.341Z,2.4
2019-04-04T02:34:06.476Z,2.4
2019-04-04T02:49:01.345Z,2.5
2019-04-04T03:00:02.497Z,2.5
2019-04-04T03:10:01.559Z,2.5
2019-04-04T03:15:01.332Z,2.5
2019-04-04T03:30:01.425Z,2.5
2019-04-04T03:45:01.325Z,2.5
2019-04-04T03:55:01.465Z,2.5
2019-04-04T04:00:07.444Z,2.5
2019-04-04T04:15:01.276Z,2.4
2019-04-04T04:30:08.013Z,2.4
2019-04-04T04:36:01.356Z,2.4
2019-04-04T04:51:01.377Z,2.5
2019-04-04T04:56:01.402Z,2.6
2019-04-04T05:11:01.394Z,2.6
2019-04-04T05:26:03.368Z,2.5
2019-04-04T05:41:02.391Z,2.5
2019-04-04T05:56:01.470Z,2.5
2019-04-04T06:01:02.683Z,2.5
2019-04-04T06:11:01.347Z,2.6
2019-04-04T06:16:04.803Z,2.6
2019-04-04T06:31:01.365Z,2.6
2019-04-04T06:36:01.413Z,2.6
2019-04-04T06:47:02.382Z,2.7
2019-04-04T06:52:01.315Z,2.8
2019-04-04T06:57:04.784Z,2.9
2019-04-04T07:07:01.355Z,2.9
2019-04-04T07:22:01.381Z,2.9
2019-04-04T07:37:01.865Z,3.0
2019-04-04T07:43:01.411Z,2.9
2019-04-04T07:53:05.165Z,2.7
2019-04-04T07:58:01.270Z,2.6
2019-04-04T08:03:01.275Z,2.5
2019-04-04T08:08:01.268Z,2.4
2019-04-04T08:13:01.418Z,2.4
2019-04-04T08:18:02.309Z,2.2
2019-04-04T08:23:01.346Z,2.2
2019-04-04T08:28:01.270Z,2.1
2019-04-04T08:38:01.325Z,2.0
2019-04-04T08:43:01.388Z,2.0
2019-04-04T08:58:01.396Z,2.0
2019-04-04T09:13:01.304Z,2.0
2019-04-04T09:23:01.475Z,2.7
2019-04-04T09:28:01.373Z,2.7
2019-04-04T09:33:01.380Z,2.9
2019-04-04T09:38:01.366Z,3.0
2019-04-04T09:43:01.430Z,6.1
2019-04-04T09:48:01.326Z,6.4
2019-04-04T09:53:01.414Z,5.7
2019-04-04T09:58:01.349Z,5.9
2019-04-04T10:03:01.378Z,7.2
2019-04-04T10:08:01.305Z,7.5
2019-04-04T10:13:01.351Z,16.8
2019-04-04T10:18:01.310Z,17.1
2019-04-04T10:24:01.455Z,29.3
2019-04-04T10:29:01.264Z,29.9
2019-04-04T10:34:01.420Z,30.9
2019-04-04T10:39:01.346Z,31.1
2019-04-04T10:44:01.305Z,34.4
2019-04-04T10:49:01.292Z,34.9
2019-04-04T10:54:01.495Z,34.4
2019-04-04T11:04:01.616Z,37.2
2019-04-04T11:09:01.356Z,37.4
2019-04-04T11:14:01.435Z,36.6
2019-04-04T11:19:02.108Z,36.4
2019-04-04T11:24:01.303Z,38.3
2019-04-04T11:29:01.270Z,44.3
2019-04-04T11:34:01.464Z,44.7
2019-04-04T11:39:01.309Z,46.3
2019-04-04T11:44:01.410Z,46.5
2019-04-04T11:49:01.310Z,40.6
2019-04-04T11:54:01.599Z,40.6
2019-04-04T11:59:01.354Z,40.2
2019-04-04T12:04:01.284Z,39.2
2019-04-04T12:09:06.665Z,42.3
2019-04-04T12:14:01.339Z,41.5
2019-04-04T12:19:01.273Z,41.0
2019-04-04T12:24:01.557Z,40.8
2019-04-04T12:29:01.354Z,42.6
2019-04-04T12:34:02.469Z,43.4
2019-04-04T12:39:01.303Z,44.0
2019-04-04T12:44:01.329Z,43.6
2019-04-04T12:49:01.232Z,49.0
2019-04-04T12:54:01.364Z,47.8
2019-04-04T12:59:01.334Z,46.2
2019-04-04T13:04:01.306Z,46.4
2019-04-04T13:09:01.335Z,46.9
2019-04-04T13:14:01.341Z,46.0
2019-04-04T13:19:01.282Z,47.9
2019-04-04T13:24:01.316Z,46.4
2019-04-04T13:29:01.304Z,46.7
2019-04-04T13:34:01.336Z,45.1
2019-04-04T13:39:01.363Z,45.6
2019-04-04T13:44:01.388Z,45.5
2019-04-04T13:54:01.358Z,44.1
2019-04-04T13:59:05.830Z,44.8
2019-04-04T14:04:01.431Z,44.6
2019-04-04T14:09:01.274Z,44.9
2019-04-04T14:14:02.331Z,44.6
2019-04-04T14:19:01.282Z,43.8
2019-04-04T14:24:14.277Z,44.1
2019-04-04T14:29:04.737Z,44.5
2019-04-04T14:34:01.595Z,46.0
2019-04-04T14:39:01.338Z,47.0
2019-04-04T14:44:01.430Z,47.0
2019-04-04T14:49:01.363Z,47.4
2019-04-04T14:54:01.452Z,47.1
2019-04-04T14:59:01.300Z,46.1
2019-04-04T15:04:01.335Z,46.0
2019-04-04T15:09:01.371Z,45.4
2019-04-04T15:14:01.386Z,46.4
2019-04-04T15:24:01.322Z,46.6
2019-04-04T15:29:02.310Z,47.8
2019-04-04T15:34:01.525Z,48.5
2019-04-04T15:39:01.305Z,46.8
2019-04-04T15:49:01.320Z,47.3
2019-04-04T15:54:01.262Z,47.0
2019-04-04T15:59:01.238Z,46.1
2019-04-04T16:09:01.389Z,46.3
2019-04-04T16:14:01.362Z,46.5
2019-04-04T16:19:01.289Z,45.5
2019-04-04T16:24:01.300Z,45.4
2019-04-04T16:29:01.273Z,45.9
2019-04-04T16:34:01.302Z,46.0
2019-04-04T16:39:01.241Z,46.1
2019-04-04T16:44:01.372Z,46.3
2019-04-04T16:49:01.297Z,45.4
2019-04-04T16:54:01.419Z,45.3
2019-04-04T16:59:01.299Z,44.1
2019-04-04T17:09:01.263Z,41.0
2019-04-04T17:14:02.430Z,41.8
2019-04-04T17:19:01.278Z,38.2
2019-04-04T17:24:01.321Z,38.6
2019-04-04T17:29:01.303Z,34.9
2019-04-04T17:34:02.302Z,35.1
2019-04-04T17:39:01.674Z,32.2
2019-04-04T17:44:01.331Z,32.4
2019-04-04T17:49:01.325Z,32.3
2019-04-04T17:54:01.623Z,30.2
2019-04-04T17:59:01.282Z,30.1
2019-04-04T18:04:01.504Z,28.0
2019-04-04T18:09:01.308Z,27.9
2019-04-04T18:14:01.364Z,25.5
2019-04-04T18:19:01.268Z,25.4
2019-04-04T18:24:01.314Z,22.8
2019-04-04T18:29:01.305Z,22.6
2019-04-04T18:34:01.363Z,18.7
2019-04-04T18:39:01.285Z,18.9
2019-04-04T18:44:01.432Z,19.8
2019-04-04T18:49:01.297Z,19.8
2019-04-04T18:54:01.653Z,18.3
2019-04-04T18:59:01.304Z,18.5
2019-04-04T19:04:01.367Z,18.0
2019-04-04T19:09:01.256Z,18.2
2019-04-04T19:14:01.357Z,12.6
2019-04-04T19:19:01.332Z,12.5
2019-04-04T19:24:01.419Z,13.9
2019-04-04T19:29:01.275Z,13.8
2019-04-04T19:34:01.438Z,13.1
2019-04-04T19:39:01.304Z,13.2
2019-04-04T19:44:01.505Z,11.6
2019-04-04T19:49:01.332Z,11.6
2019-04-04T19:54:01.303Z,12.6
2019-04-04T19:59:01.356Z,12.5
2019-04-04T20:04:01.391Z,11.2
2019-04-04T20:14:01.337Z,11.8
2019-04-04T20:19:01.257Z,11.6
2019-04-04T20:24:01.402Z,10.0
2019-04-04T20:29:01.303Z,9.9
2019-04-04T20:34:06.068Z,8.4
2019-04-04T20:39:01.262Z,8.4
2019-04-04T20:44:01.436Z,9.4
2019-04-04T20:49:01.299Z,9.4
2019-04-04T20:54:01.329Z,8.9
2019-04-04T20:59:01.303Z,9.1
2019-04-04T21:04:01.429Z,6.7
2019-04-04T21:09:01.304Z,6.6
2019-04-04T21:14:01.371Z,3.5
2019-04-04T21:19:01.331Z,3.4
2019-04-04T21:24:01.314Z,2.3
2019-04-04T21:29:01.269Z,2.4
2019-04-04T21:34:01.399Z,3.8
2019-04-04T21:39:01.270Z,3.8
2019-04-04T21:44:09.476Z,4.6
2019-04-04T21:49:01.298Z,4.6
2019-04-04T21:54:01.429Z,4.4
2019-04-04T21:59:02.264Z,4.4
2019-04-04T22:04:01.400Z,4.7
2019-04-04T22:14:01.305Z,3.8
2019-04-04T22:29:01.429Z,4.7
2019-04-04T22:39:01.396Z,5.1
2019-04-04T22:44:03.984Z,3.4
2019-04-04T22:49:02.505Z,3.4
2019-04-04T22:54:01.355Z,2.3
2019-04-04T22:59:01.283Z,2.3
2019-04-04T23:04:01.428Z,2.4
2019-04-04T23:09:01.340Z,2.4
2019-04-04T23:14:01.336Z,2.3
2019-04-04T23:29:01.435Z,2.3
2019-04-04T23:34:01.377Z,2.8
2019-04-04T23:39:01.267Z,2.8
2019-04-04T23:44:01.348Z,4.3
2019-04-04T23:49:01.837Z,4.3
2019-04-04T23:54:01.329Z,2.6
2019-04-04T23:59:01.302Z,2.6
